Time;durP1;ratioP1;P1;durP2;ratioP2;P2;SDS_P1;SDS_P2;PMS_P1;PMS_P2;Temp;Humidity;BMP_temperature;BMP_pressure;BME280_temperature;BME280_humidity;BME280_pressure;Samples;Min_cycle;Max_cycle;Signal;HPM_P1;HPM_P2
2023/04/17 00:01:54;;;;;;;5.80;5.00;;;;;;;7.95;75.62;99183.91;5066416;28;20107;-72
2023/04/17 00:04:22;;;;;;;5.72;5.13;;;;;;;7.96;75.57;99185.63;5066615;28;20047;-72
2023/04/17 00:06:49;;;;;;;5.95;5.03;;;;;;;7.98;75.51;99193.47;5066576;28;20059;-71
2023/04/17 00:09:15;;;;;;;4.85;4.35;;;;;;;7.98;75.43;99189.03;5066492;28;20048;-71
2023/04/17 00:11:42;;;;;;;5.30;4.63;;;;;;;7.99;75.55;99193.41;5066434;28;20047;-71
2023/04/17 00:14:09;;;;;;;5.80;5.20;;;;;;;7.97;75.63;99189.13;5066095;28;20112;-70
2023/04/17 00:16:35;;;;;;;6.18;5.00;;;;;;;7.98;75.45;99189.03;5066187;28;20117;-71
2023/04/17 00:19:02;;;;;;;7.75;5.40;;;;;;;7.66;75.48;99139.56;5066242;28;20091;-71
2023/04/17 00:21:31;;;;;;;5.80;4.47;;;;;;;7.42;75.31;99101.16;5066615;28;20201;-71
2023/04/17 00:23:57;;;;;;;5.10;4.60;;;;;;;7.10;75.47;99039.34;5065981;28;20087;-71
2023/04/17 00:26:24;;;;;;;5.97;5.07;;;;;;;7.93;75.56;99184.91;5065898;28;20041;-71
2023/04/17 00:28:51;;;;;;;7.18;6.03;;;;;;;7.92;75.58;99189.34;5066403;28;20053;-71
2023/04/17 00:31:17;;;;;;;5.35;4.85;;;;;;;7.92;75.77;99185.84;5066046;28;20049;-72
2023/04/17 00:33:45;;;;;;;5.82;5.22;;;;;;;7.93;75.55;99184.91;5066014;28;20041;-72
2023/04/17 00:36:12;;;;;;;6.47;5.18;;;;;;;7.69;75.63;99134.16;5065683;28;20041;-72
2023/04/17 00:38:40;;;;;;;4.93;4.32;;;;;;;7.93;75.74;99177.84;5065829;28;20041;-72
2023/04/17 00:41:07;;;;;;;6.32;5.47;;;;;;;7.95;75.53;99177.78;5066145;28;20047;-72
2023/04/17 00:43:33;;;;;;;5.78;4.88;;;;;;;7.77;75.50;99153.13;5065302;28;20060;-72
2023/04/17 00:46:01;;;;;;;6.10;5.18;;;;;;;7.96;75.54;99175.06;5066128;28;20051;-72
2023/04/17 00:48:28;;;;;;;6.13;4.85;;;;;;;7.96;75.62;99174.22;5065215;28;20289;-72
2023/04/17 00:50:55;;;;;;;6.88;5.53;;;;;;;7.62;75.82;99116.91;5065462;28;20048;-72
2023/04/17 00:53:22;;;;;;;5.72;5.22;;;;;;;7.95;75.53;99176.00;5066025;28;20110;-71
2023/04/17 00:55:51;;;;;;;5.22;4.72;;;;;;;7.97;75.63;99168.00;5065616;28;20044;-72
2023/04/17 00:58:19;;;;;;;6.57;5.97;;;;;;;7.99;75.58;99171.44;5065968;28;20048;-72
2023/04/17 01:00:45;;;;;;;5.95;5.35;;;;;;;7.99;75.47;99171.44;5065872;28;20102;-71
2023/04/17 01:03:13;;;;;;;6.72;5.93;;;;;;;7.98;75.48;99169.72;5065877;28;20041;-71
2023/04/17 01:05:40;;;;;;;6.07;5.25;;;;;;;7.98;75.55;99172.34;5065596;28;20249;-71
2023/04/17 01:08:07;;;;;;;5.50;4.95;;;;;;;7.98;75.55;99177.63;5065132;28;20041;-71
2023/04/17 01:10:34;;;;;;;6.05;5.47;;;;;;;7.98;75.48;99175.00;5065175;28;20045;-71
2023/04/17 01:13:06;;;;;;;6.15;5.55;;;;;;;7.95;75.80;99175.13;5065436;28;20154;-71
2023/04/17 01:15:33;;;;;;;6.13;5.53;;;;;;;7.95;75.77;99176.00;5065373;28;20289;-70
2023/04/17 01:18:00;;;;;;;6.15;5.55;;;;;;;7.61;75.64;99116.06;5065426;28;20086;-71
2023/04/17 01:20:29;;;;;;;5.97;5.38;;;;;;;6.27;75.52;98889.50;5064781;28;20064;-71
2023/04/17 01:22:56;;;;;;;6.13;5.53;;;;;;;7.60;75.92;99126.66;5065279;28;20293;-71
2023/04/17 01:25:25;;;;;;;7.07;6.38;;;;;;;7.97;75.56;99171.50;5065309;28;20091;-70
2023/04/17 01:27:52;;;;;;;6.10;5.50;;;;;;;7.97;75.61;99171.50;5065046;28;20036;-71
2023/04/17 01:30:18;;;;;;;6.57;5.93;;;;;;;7.32;75.44;99071.69;5064989;28;20049;-72
2023/04/17 01:32:45;;;;;;;7.13;5.22;;;;;;;8.00;75.33;99170.50;5065477;28;20049;-71
2023/04/17 01:35:12;;;;;;;6.85;5.47;;;;;;;7.99;75.35;99168.78;5064776;28;20037;-71
2023/04/17 01:37:38;;;;;;;5.97;5.38;;;;;;;7.98;75.36;99169.72;5064953;28;20045;-71
2023/04/17 01:40:07;;;;;;;5.78;5.18;;;;;;;7.96;75.35;99168.94;5064888;28;20240;-71
2023/04/17 01:42:35;;;;;;;6.40;5.80;;;;;;;7.96;75.23;99169.78;5064903;28;20068;-71
2023/04/17 01:45:01;;;;;;;7.00;5.63;;;;;;;7.95;75.32;99173.34;5064850;28;20045;-71
2023/04/17 01:47:28;;;;;;;7.70;5.57;;;;;;;7.95;75.21;99176.00;5065087;28;20037;-70
2023/04/17 01:49:55;;;;;;;7.32;5.65;;;;;;;7.76;75.25;99151.41;5065165;28;20294;-71
2023/04/17 01:52:21;;;;;;;5.60;4.80;;;;;;;7.94;75.21;99184.00;5065453;28;20041;-71
2023/04/17 01:54:48;;;;;;;6.18;4.72;;;;;;;7.93;75.14;99180.50;5065483;28;20053;-72
2023/04/17 01:57:15;;;;;;;5.90;5.20;;;;;;;7.94;75.21;99182.19;5065088;28;20170;-72
2023/04/17 01:59:43;;;;;;;5.95;5.30;;;;;;;7.90;75.34;99185.06;5065093;28;20063;-72
2023/04/17 02:02:10;;;;;;;5.28;4.75;;;;;;;7.91;75.12;99187.63;5065092;28;20045;-72
2023/04/17 02:04:37;;;;;;;5.47;4.93;;;;;;;7.90;75.22;99185.06;5065061;28;20072;-71
2023/04/17 02:07:04;;;;;;;5.90;5.30;;;;;;;7.89;75.21;99178.06;5064571;28;20041;-73
2023/04/17 02:09:31;;;;;;;5.43;4.88;;;;;;;7.91;75.11;99186.78;5064901;28;20106;-72
2023/04/17 02:11:57;;;;;;;5.15;4.65;;;;;;;7.92;75.04;99181.41;5065006;28;20071;-72
2023/04/17 02:14:25;;;;;;;5.82;4.93;;;;;;;7.37;75.03;99104.00;5064791;28;20052;-71
2023/04/17 02:16:53;;;;;;;5.82;5.03;;;;;;;7.95;75.06;99190.97;5065189;28;20053;-71
2023/04/17 02:19:20;;;;;;;5.30;4.70;;;;;;;7.93;75.22;99185.78;5065591;28;20044;-72
2023/04/17 02:21:47;;;;;;;6.50;5.78;;;;;;;7.92;74.99;99292.25;5068596;28;20041;-73
2023/04/17 02:24:14;;;;;;;5.70;5.10;;;;;;;7.93;75.09;99184.91;5068826;28;20110;-73
2023/04/17 02:26:41;;;;;;;5.25;4.60;;;;;;;7.93;75.18;99180.50;5068770;28;20087;-73
2023/04/17 02:29:07;;;;;;;5.85;5.10;;;;;;;7.96;75.00;99182.13;5068731;28;20052;-73
2023/04/17 02:31:34;;;;;;;6.10;5.50;;;;;;;7.24;74.90;99052.75;5068693;28;20051;-71
2023/04/17 02:34:02;;;;;;;5.95;5.20;;;;;;;7.98;74.94;99175.00;5068631;28;20090;-71
2023/04/17 02:36:29;;;;;;;5.97;5.38;;;;;;;7.85;74.91;99150.97;5068266;28;20033;-71
2023/04/17 02:38:56;;;;;;;6.03;5.43;;;;;;;7.97;75.01;99168.88;5068567;28;20087;-71
2023/04/17 02:41:23;;;;;;;6.55;5.85;;;;;;;7.76;75.09;99135.56;5068243;28;20037;-71
2023/04/17 02:43:49;;;;;;;6.20;5.40;;;;;;;7.96;75.04;99163.66;5068089;28;20057;-71
2023/04/17 02:46:16;;;;;;;6.32;5.72;;;;;;;7.95;75.03;99169.88;5068705;28;20090;-71
2023/04/17 02:48:43;;;;;;;7.22;6.13;;;;;;;7.71;75.16;99124.38;5068430;28;20093;-72
2023/04/17 02:51:11;;;;;;;5.95;5.35;;;;;;;7.93;75.28;99169.94;5067323;28;20303;-72
2023/04/17 02:53:37;;;;;;;6.32;5.70;;;;;;;7.92;75.23;99157.66;5068263;28;20055;-72
2023/04/17 02:56:04;;;;;;;6.15;5.20;;;;;;;7.94;75.18;99161.09;5068130;28;20099;-72
2023/04/17 02:58:31;;;;;;;6.07;5.47;;;;;;;7.95;75.00;99161.94;5067948;28;20091;-72
2023/04/17 03:01:01;;;;;;;5.57;4.95;;;;;;;7.93;75.07;99167.28;5067941;28;20049;-72
2023/04/17 03:03:29;;;;;;;5.53;5.03;;;;;;;7.94;74.96;99163.72;5068422;28;20086;-72
2023/04/17 03:05:57;;;;;;;6.78;6.07;;;;;;;7.94;74.89;99170.78;5068359;28;20189;-72
2023/04/17 03:08:28;;;;;;;6.45;5.50;;;;;;;7.75;74.93;99139.16;5068353;28;20060;-71
2023/04/17 03:10:55;;;;;;;6.07;5.20;;;;;;;7.52;75.13;99126.16;5067682;28;20254;-71
2023/04/17 03:13:22;;;;;;;6.22;5.63;;;;;;;7.93;75.02;99169.94;5067834;28;20045;-72
2023/04/17 03:15:49;;;;;;;7.13;5.75;;;;;;;7.93;74.85;99177.84;5067830;28;20037;-72
2023/04/17 03:18:15;;;;;;;5.22;4.72;;;;;;;7.89;75.04;99170.16;5068152;28;20111;-71
2023/04/17 03:20:42;;;;;;;6.10;5.50;;;;;;;7.93;75.08;99177.00;5068046;28;20041;-72
2023/04/17 03:23:08;;;;;;;6.07;5.47;;;;;;;7.93;75.02;99184.91;5067473;28;20054;-72
2023/04/17 03:25:37;;;;;;;5.72;5.13;;;;;;;7.92;75.02;99183.19;5067679;28;20041;-72
2023/04/17 03:28:04;;;;;;;5.60;5.05;;;;;;;7.92;75.09;99184.06;5067657;28;20037;-71
2023/04/17 03:30:31;;;;;;;6.88;6.18;;;;;;;7.14;74.94;99048.81;5066986;28;20108;-71
2023/04/17 03:32:58;;;;;;;5.75;5.18;;;;;;;7.91;74.98;99176.22;5066474;28;20037;-71
2023/04/17 03:35:25;;;;;;;6.57;5.82;;;;;;;7.91;75.00;99184.13;5067413;28;20044;-72
2023/04/17 03:37:51;;;;;;;6.68;5.95;;;;;;;7.88;75.05;99182.50;5067441;28;20047;-71
2023/04/17 03:40:18;;;;;;;6.00;5.40;;;;;;;7.89;75.09;99178.06;5067371;28;20045;-71
2023/04/17 03:42:46;;;;;;;6.32;5.53;;;;;;;7.73;75.24;99161.25;5067373;28;20065;-71
2023/04/17 03:45:13;;;;;;;6.00;5.40;;;;;;;7.88;75.24;99181.63;5067313;28;20041;-71
2023/04/17 03:47:40;;;;;;;5.97;5.32;;;;;;;7.88;75.21;99190.41;5066991;28;20301;-72
2023/04/17 03:50:08;;;;;;;5.90;5.30;;;;;;;7.88;75.20;99182.50;5067240;28;20052;-71
2023/04/17 03:52:34;;;;;;;6.35;5.75;;;;;;;7.88;75.13;99186.91;5067447;28;20045;-71
2023/04/17 03:55:01;;;;;;;6.13;5.53;;;;;;;7.88;75.13;99181.63;5066561;28;20040;-72
2023/04/17 03:57:28;;;;;;;7.40;5.95;;;;;;;7.87;75.13;99199.25;5066739;28;20048;-72
2023/04/17 03:59:56;;;;;;;6.43;5.35;;;;;;;7.86;75.24;99186.13;5067116;28;20042;-71
2023/04/17 04:02:22;;;;;;;7.38;6.68;;;;;;;7.86;75.30;99186.13;5067295;28;20044;-72
2023/04/17 04:04:50;;;;;;;6.40;5.75;;;;;;;7.85;75.30;99182.63;5066599;28;20044;-72
2023/04/17 04:07:16;;;;;;;6.88;6.18;;;;;;;7.83;75.27;99189.75;5066883;28;20182;-72
2023/04/17 04:09:43;;;;;;;6.78;6.03;;;;;;;7.64;75.47;99154.63;5066826;28;20051;-72
2023/04/17 04:12:10;;;;;;;6.47;5.85;;;;;;;7.81;75.33;99181.06;5066847;28;20214;-72
2023/04/17 04:14:37;;;;;;;6.38;5.78;;;;;;;7.74;75.42;99173.50;5066754;28;20309;-71
2023/04/17 04:17:05;;;;;;;6.60;5.85;;;;;;;7.81;75.49;99177.56;5066398;28;20067;-72
2023/04/17 04:19:32;;;;;;;7.03;6.32;;;;;;;7.81;75.50;99178.44;5066385;28;20044;-71
2023/04/17 04:21:58;;;;;;;6.90;6.20;;;;;;;7.83;75.40;99194.19;5066326;28;20200;-71
2023/04/17 04:24:25;;;;;;;6.93;6.10;;;;;;;7.02;75.09;99059.00;5066578;28;20059;-72
2023/04/17 04:26:52;;;;;;;6.82;6.13;;;;;;;7.44;75.40;99129.16;5066496;28;20111;-72
2023/04/17 04:29:18;;;;;;;7.65;6.85;;;;;;;7.81;75.62;99194.25;5066182;28;20052;-71
2023/04/17 04:31:49;;;;;;;7.10;6.40;;;;;;;7.81;75.60;99194.25;5066115;28;20116;-71
2023/04/17 04:34:17;;;;;;;7.80;6.93;;;;;;;7.81;75.59;99188.97;5066366;28;20201;-72
2023/04/17 04:36:48;;;;;;;7.07;6.38;;;;;;;7.82;75.54;99197.75;5066480;28;20041;-71
2023/04/17 04:39:19;;;;;;;7.47;6.70;;;;;;;7.83;75.50;99200.31;5066266;28;20086;-72
2023/04/17 04:41:45;;;;;;;7.85;7.05;;;;;;;7.60;75.47;99169.72;5065875;28;20091;-71
2023/04/17 04:44:12;;;;;;;7.57;6.53;;;;;;;7.82;75.58;99206.53;5065588;28;20071;-72
2023/04/17 04:46:39;;;;;;;7.35;6.65;;;;;;;7.86;75.57;99212.50;5066141;28;20083;-72
2023/04/17 04:49:05;;;;;;;7.53;6.78;;;;;;;7.88;75.60;99215.94;5066307;28;20107;-71
2023/04/17 04:51:33;;;;;;;7.78;6.93;;;;;;;7.89;75.57;99218.50;5065817;28;20083;-72
2023/04/17 04:54:00;;;;;;;8.15;7.30;;;;;;;7.91;75.46;99214.00;5065578;28;20041;-72
2023/04/17 04:56:27;;;;;;;8.15;6.68;;;;;;;7.93;75.48;99213.94;5065589;28;20044;-72
2023/04/17 04:58:55;;;;;;;7.45;6.70;;;;;;;7.73;75.42;99177.94;5065825;28;20316;-72
2023/04/17 05:01:22;;;;;;;7.47;6.70;;;;;;;7.97;75.22;99205.81;5065930;28;20064;-72
2023/04/17 05:03:49;;;;;;;7.88;7.15;;;;;;;8.00;75.23;99205.66;5065942;28;20087;-71
2023/04/17 05:06:15;;;;;;;7.72;6.93;;;;;;;8.02;75.15;99218.78;5065526;28;20098;-72
2023/04/17 05:08:44;;;;;;;7.70;6.10;;;;;;;7.82;74.97;99171.38;5065499;28;20083;-72
2023/04/17 05:11:11;;;;;;;7.60;6.80;;;;;;;8.05;75.24;99216.00;5064665;28;20072;-72
2023/04/17 05:13:38;;;;;;;7.55;6.72;;;;;;;8.07;75.05;99208.88;5065995;28;20090;-72
2023/04/17 05:16:05;;;;;;;7.50;6.43;;;;;;;7.92;74.91;99183.19;5065551;28;20043;-72
2023/04/17 05:18:32;;;;;;;8.07;7.28;;;;;;;8.12;74.88;99212.16;5065354;28;20049;-72
2023/04/17 05:20:58;;;;;;;8.90;6.85;;;;;;;8.16;74.86;99218.13;5065411;28;20192;-72
2023/04/17 05:23:27;;;;;;;8.10;7.05;;;;;;;8.19;74.79;99220.63;5065863;28;20082;-72
2023/04/17 05:25:55;;;;;;;8.05;6.90;;;;;;;8.02;74.61;99192.41;5065353;28;20205;-72
2023/04/17 05:28:21;;;;;;;8.27;6.80;;;;;;;8.22;74.69;99223.97;5065865;28;20099;-72
2023/04/17 05:30:48;;;;;;;7.10;6.30;;;;;;;8.24;74.70;99230.03;5065799;28;20048;-72
2023/04/17 05:33:15;;;;;;;7.95;7.15;;;;;;;8.26;74.49;99229.97;5065420;28;20115;-72
2023/04/17 05:35:41;;;;;;;8.52;6.80;;;;;;;8.29;74.42;99229.81;5065227;28;20036;-71
2023/04/17 05:38:08;;;;;;;8.05;6.25;;;;;;;8.31;74.32;99228.81;5065634;28;20048;-72
2023/04/17 05:40:35;;;;;;;7.80;7.05;;;;;;;8.34;74.18;99231.31;5065422;28;20131;-72
2023/04/17 05:43:08;;;;;;;9.48;7.03;;;;;;;8.36;74.75;99223.31;5065093;28;20130;-72
2023/04/17 05:45:34;;;;;;;7.57;6.80;;;;;;;7.81;74.32;99146.75;5065592;28;20041;-72
2023/04/17 05:48:01;;;;;;;7.95;7.05;;;;;;;8.42;74.38;99236.22;5065436;28;20048;-72
2023/04/17 05:50:28;;;;;;;9.52;7.78;;;;;;;8.44;74.17;99231.72;5065042;28;20052;-72
2023/04/17 05:52:55;;;;;;;7.65;6.85;;;;;;;8.18;74.34;99184.59;5065610;28;20060;-73
2023/04/17 05:55:22;;;;;;;7.30;6.60;;;;;;;8.52;74.25;99234.00;5067510;28;20033;-73
2023/04/17 05:57:48;;;;;;;8.07;7.22;;;;;;;8.56;74.29;99232.91;5069425;28;20039;-73
2023/04/17 06:00:17;;;;;;;10.90;7.25;;;;;;;8.41;74.11;99194.91;5069141;28;20213;-74
2023/04/17 06:02:44;;;;;;;7.90;7.10;;;;;;;8.64;74.10;99236.03;5068911;28;20090;-74
2023/04/17 06:05:11;;;;;;;7.47;6.03;;;;;;;8.70;73.96;99240.16;5068913;28;20045;-74
2023/04/17 06:07:37;;;;;;;7.68;6.55;;;;;;;8.78;73.68;99238.00;5068813;28;20112;-73
2023/04/17 06:10:05;;;;;;;8.30;7.30;;;;;;;8.83;73.70;99228.91;5068733;28;20041;-74
2023/04/17 06:12:32;;;;;;;7.75;6.95;;;;;;;8.94;73.47;99228.38;5068708;28;20048;-74
2023/04/17 06:14:58;;;;;;;7.88;6.95;;;;;;;8.81;73.09;99188.50;5069224;28;20193;-73
2023/04/17 06:17:26;;;;;;;7.97;7.18;;;;;;;9.15;72.73;99229.94;5068554;28;20200;-73
2023/04/17 06:19:53;;;;;;;8.20;7.00;;;;;;;9.25;72.49;99231.19;5068670;28;20055;-73
2023/04/17 06:22:20;;;;;;;7.45;6.70;;;;;;;9.37;72.40;99232.34;5069128;28;20041;-73
2023/04/17 06:24:47;;;;;;;7.60;6.60;;;;;;;9.50;72.04;99236.09;5068858;28;20104;-73
2023/04/17 06:27:14;;;;;;;9.07;7.30;;;;;;;9.66;71.35;99228.19;5068771;28;20037;-73
2023/04/17 06:29:41;;;;;;;7.10;6.40;;;;;;;9.86;71.00;99232.41;5068493;28;20072;-73
2023/04/17 06:32:07;;;;;;;6.32;5.68;;;;;;;10.09;70.39;99237.31;5067562;28;20037;-73
2023/04/17 06:34:35;;;;;;;7.28;6.20;;;;;;;10.09;69.72;99200.25;5067449;28;20036;-73
2023/04/17 06:37:02;;;;;;;7.50;6.68;;;;;;;10.49;68.96;99230.66;5068204;28;20033;-73
2023/04/17 06:39:30;;;;;;;8.63;7.18;;;;;;;10.66;68.67;99232.34;5068141;28;20115;-73
2023/04/17 06:41:58;;;;;;;7.72;6.70;;;;;;;10.65;67.41;99203.28;5068631;28;20060;-73
2023/04/17 06:44:24;;;;;;;7.93;7.13;;;;;;;10.95;67.21;99230.69;5068086;28;20061;-73
2023/04/17 06:46:52;;;;;;;7.57;6.88;;;;;;;10.90;66.69;99204.44;5068726;28;20037;-73
2023/04/17 06:49:19;;;;;;;7.90;7.10;;;;;;;11.24;66.13;99235.09;5068330;28;20264;-73
2023/04/17 06:51:47;;;;;;;7.22;6.53;;;;;;;11.39;65.69;99236.00;5067917;28;20297;-72
2023/04/17 06:54:13;;;;;;;7.88;6.95;;;;;;;11.01;65.32;99150.75;5067842;28;20356;-72
2023/04/17 06:56:40;;;;;;;8.00;7.20;;;;;;;11.60;64.99;99236.47;5067731;28;20037;-73
2023/04/17 06:59:07;;;;;;;7.38;6.57;;;;;;;11.52;65.11;99204.25;5068186;28;20053;-72
2023/04/17 07:01:34;;;;;;;8.05;7.10;;;;;;;11.86;64.40;99240.19;5066953;28;20339;-72
2023/04/17 07:04:01;;;;;;;8.52;6.82;;;;;;;11.87;64.18;99210.03;5067985;28;20060;-73
2023/04/17 07:06:28;;;;;;;9.43;7.20;;;;;;;12.24;64.00;99240.50;5067829;28;20324;-73
2023/04/17 07:08:56;;;;;;;7.95;7.07;;;;;;;12.46;63.70;99242.63;5067977;28;20051;-73
2023/04/17 07:11:24;;;;;;;8.07;7.28;;;;;;;12.67;62.98;99235.06;5067887;28;20304;-72
2023/04/17 07:13:50;;;;;;;8.25;6.72;;;;;;;12.47;62.45;99176.09;5067560;28;20104;-73
2023/04/17 07:16:17;;;;;;;7.63;6.82;;;;;;;12.82;62.41;99208.31;5067733;28;20055;-73
2023/04/17 07:18:44;;;;;;;6.75;6.07;;;;;;;13.11;61.83;99240.09;5067802;28;20265;-73
2023/04/17 07:21:10;;;;;;;9.30;7.40;;;;;;;13.16;61.93;99232.66;5067513;28;20036;-73
2023/04/17 07:23:37;;;;;;;6.93;6.22;;;;;;;13.20;61.59;99235.94;5067387;28;20228;-73
2023/04/17 07:26:06;;;;;;;6.63;5.78;;;;;;;12.97;61.17;99179.81;5067360;28;20207;-73
2023/04/17 07:28:33;;;;;;;7.55;6.75;;;;;;;13.43;61.21;99241.44;5067561;28;20103;-72
2023/04/17 07:30:59;;;;;;;8.40;6.82;;;;;;;13.56;61.11;99232.63;5067667;28;20060;-72
2023/04/17 07:33:26;;;;;;;8.18;6.28;;;;;;;13.31;60.68;99186.34;5071662;28;20037;-72
2023/04/17 07:35:53;;;;;;;8.27;6.47;;;;;;;13.93;60.42;99236.22;5071277;28;20071;-72
2023/04/17 07:38:19;;;;;;;7.78;6.90;;;;;;;13.68;59.65;99182.00;5071143;28;20064;-72
2023/04/17 07:40:46;;;;;;;8.77;7.28;;;;;;;13.94;59.62;99205.94;5072213;28;20045;-72
2023/04/17 07:43:15;;;;;;;7.30;6.43;;;;;;;14.20;58.76;99228.91;5070947;28;20068;-73
2023/04/17 07:45:42;;;;;;;8.82;6.45;;;;;;;14.22;58.87;99228.81;5067635;28;20053;-73
2023/04/17 07:48:09;;;;;;;6.97;5.75;;;;;;;14.31;58.67;99236.13;5067531;28;20037;-73
2023/04/17 07:50:36;;;;;;;8.65;6.20;;;;;;;14.38;57.43;99232.91;5067109;28;20041;-73
2023/04/17 07:53:02;;;;;;;7.68;6.85;;;;;;;14.39;58.12;99231.94;5067256;28;20065;-73
2023/04/17 07:55:29;;;;;;;8.13;6.82;;;;;;;14.45;57.89;99246.66;5067128;28;20108;-72
2023/04/17 07:57:56;;;;;;;8.85;6.88;;;;;;;14.57;57.50;99247.56;5066858;28;20228;-72
2023/04/17 08:00:24;;;;;;;8.15;6.38;;;;;;;14.65;57.09;99230.13;5066947;28;20037;-73
2023/04/17 08:02:51;;;;;;;6.22;5.63;;;;;;;14.72;56.98;99247.38;5066950;28;20037;-73
2023/04/17 08:05:18;;;;;;;8.60;6.80;;;;;;;14.55;56.95;99210.34;5066672;28;20307;-73
2023/04/17 08:07:44;;;;;;;7.30;6.60;;;;;;;14.79;56.54;99226.41;5066515;28;20174;-73
2023/04/17 08:10:11;;;;;;;14.07;7.00;;;;;;;11.02;56.49;98587.66;5066515;28;20041;-73
2023/04/17 08:12:38;;;;;;;7.78;6.97;;;;;;;15.04;56.41;99244.13;5065880;28;20300;-74
2023/04/17 08:15:05;;;;;;;7.03;6.32;;;;;;;15.12;56.04;99241.72;5066725;28;20037;-73
2023/04/17 08:17:34;;;;;;;8.05;7.15;;;;;;;15.18;55.60;99243.06;5065962;28;20060;-74
2023/04/17 08:20:09;;;;;;;8.23;6.32;;;;;;;15.22;55.53;99248.06;5066336;28;20037;-74
2023/04/17 08:22:38;;;;;;;7.15;5.82;;;;;;;15.31;54.74;99246.50;5066586;28;20072;-74
2023/04/17 08:25:08;;;;;;;9.55;6.57;;;;;;;15.44;55.33;99243.75;5066524;28;20308;-74
2023/04/17 08:27:35;;;;;;;7.32;6.30;;;;;;;15.58;55.43;99246.22;5066239;28;20056;-73
2023/04/17 08:30:03;;;;;;;7.93;6.30;;;;;;;15.68;54.57;99242.75;5066450;28;20200;-74
2023/04/17 08:32:29;;;;;;;6.88;5.95;;;;;;;15.84;54.61;99238.88;5066582;28;20037;-73
2023/04/17 08:34:59;;;;;;;8.43;7.20;;;;;;;15.96;53.46;99237.91;5066277;28;20041;-74
2023/04/17 08:37:27;;;;;;;8.27;7.20;;;;;;;16.04;53.58;99230.13;5066242;28;20209;-73
2023/04/17 08:39:53;;;;;;;6.78;6.00;;;;;;;16.10;53.98;99232.31;5065999;28;20317;-73
2023/04/17 08:42:20;;;;;;;8.85;6.47;;;;;;;16.16;53.39;99231.81;5066102;28;20044;-74
2023/04/17 08:44:46;;;;;;;7.22;6.32;;;;;;;16.24;53.55;99226.69;5065699;28;20051;-74
2023/04/17 08:47:13;;;;;;;7.35;6.65;;;;;;;16.35;53.19;99229.38;5065383;28;20048;-73
2023/04/17 08:49:42;;;;;;;9.40;7.95;;;;;;;16.47;52.75;99226.66;5065026;28;20186;-74
2023/04/17 08:52:10;;;;;;;8.10;7.28;;;;;;;16.64;52.25;99226.13;5065029;28;20040;-74
2023/04/17 08:54:37;;;;;;;9.18;7.45;;;;;;;16.83;52.56;99217.47;5064830;28;20209;-73
2023/04/17 08:57:04;;;;;;;8.90;7.32;;;;;;;17.01;52.10;99213.25;5064971;28;20040;-72
2023/04/17 08:59:32;;;;;;;8.65;6.95;;;;;;;17.12;51.59;99201.66;5064819;28;20048;-73
2023/04/17 09:02:03;;;;;;;7.88;6.97;;;;;;;17.22;49.63;99207.94;5064475;28;20064;-73
2023/04/17 09:04:38;;;;;;;7.68;6.88;;;;;;;17.39;48.69;99219.91;5064796;28;20037;-73
2023/04/17 09:07:05;;;;;;;7.35;6.57;;;;;;;17.43;50.67;99211.47;5063928;28;20129;-73
2023/04/17 09:09:53;;;;;;;8.48;7.63;;;;;;;17.46;46.87;99208.53;5064689;28;20040;-73
2023/04/17 09:12:21;;;;;;;8.60;7.07;;;;;;;17.38;50.61;99188.75;5064645;28;20041;-73
2023/04/17 09:14:48;;;;;;;8.27;7.07;;;;;;;17.59;50.33;99202.97;5063764;28;20323;-73
2023/04/17 09:17:17;;;;;;;9.15;6.82;;;;;;;17.75;49.93;99210.56;5064746;28;20049;-73
2023/04/17 09:20:02;;;;;;;8.63;7.05;;;;;;;17.92;46.53;99212.63;5064877;28;20190;-72
2023/04/17 09:22:29;;;;;;;9.00;7.80;;;;;;;17.99;49.55;99204.88;5064701;28;20045;-73
2023/04/17 09:24:58;;;;;;;8.00;7.20;;;;;;;17.76;49.04;99142.56;5064577;28;20037;-73
2023/04/17 09:27:26;;;;;;;13.65;7.60;;;;;;;18.20;49.50;99211.88;5064572;28;20067;-73
2023/04/17 09:30:01;;;;;;;9.77;7.35;;;;;;;18.24;46.70;99207.09;5063372;28;20045;-73
2023/04/17 09:32:28;;;;;;;9.55;6.82;;;;;;;18.30;48.94;99203.00;5064343;28;20048;-73
2023/04/17 09:34:58;;;;;;;7.90;7.10;;;;;;;18.36;48.40;99197.94;5064588;28;20044;-73
2023/04/17 09:37:26;;;;;;;10.75;7.38;;;;;;;18.36;48.64;99200.63;5064475;28;20041;-73
2023/04/17 09:40:06;;;;;;;8.68;7.43;;;;;;;18.37;46.26;99196.97;5064094;28;20071;-72
2023/04/17 09:42:33;;;;;;;8.77;7.45;;;;;;;18.32;48.78;99193.84;5013142;28;1460357;-73
2023/04/17 09:45:18;;;;;;;8.38;6.93;;;;;;;18.28;45.28;99195.94;5065257;28;20116;-73
2023/04/17 09:47:47;;;;;;;9.23;7.60;;;;;;;18.24;48.79;99193.69;5065263;28;20041;-73
2023/04/17 09:50:16;;;;;;;7.32;6.57;;;;;;;18.20;48.60;99186.88;5065247;28;20052;-73
2023/04/17 09:52:43;;;;;;;9.45;6.53;;;;;;;18.21;48.92;99181.38;5065265;28;20044;-72
2023/04/17 09:55:13;;;;;;;7.90;7.10;;;;;;;18.15;48.33;99183.78;5064927;28;20047;-73
2023/04/17 09:57:41;;;;;;;10.45;7.82;;;;;;;18.15;49.04;99184.63;5064722;28;20047;-73
2023/04/17 10:00:13;;;;;;;8.30;6.95;;;;;;;18.05;48.16;99153.41;5064931;28;20067;-73
2023/04/17 10:02:42;;;;;;;7.70;6.90;;;;;;;18.27;48.48;99171.94;5063797;28;20102;-73
2023/04/17 10:05:10;;;;;;;10.00;7.00;;;;;;;18.04;48.33;99140.97;5065073;28;20312;-73
2023/04/17 10:07:38;;;;;;;7.40;6.63;;;;;;;17.88;48.92;99123.56;5064840;28;20297;-73
2023/04/17 10:10:08;;;;;;;9.55;7.70;;;;;;;18.25;48.72;99166.72;5065145;28;20044;-73
2023/04/17 10:12:38;;;;;;;7.28;6.57;;;;;;;18.28;48.44;99171.81;5064817;28;20182;-73
2023/04/17 10:15:07;;;;;;;7.20;6.50;;;;;;;18.27;48.54;99164.75;5065143;28;20052;-73
2023/04/17 10:17:34;;;;;;;7.40;6.55;;;;;;;18.24;48.63;99167.69;5064622;28;20052;-73
2023/04/17 10:20:32;;;;;;;8.13;7.32;;;;;;;18.20;46.09;99162.75;5064646;28;20362;-73
2023/04/17 10:23:00;;;;;;;7.70;6.90;;;;;;;18.17;48.61;99163.88;5064561;28;20052;-73
2023/04/17 10:25:27;;;;;;;8.15;6.65;;;;;;;18.16;48.63;99180.94;5064692;28;20064;-73
2023/04/17 10:27:58;;;;;;;12.45;7.18;;;;;;;18.16;48.37;99155.97;5064948;28;20098;-73
2023/04/17 10:30:25;;;;;;;8.90;8.00;;;;;;;18.17;48.63;99155.81;5064432;28;20041;-73
2023/04/17 10:33:24;;;;;;;8.45;7.65;;;;;;;18.26;46.69;99152.31;5064609;28;20045;-73
2023/04/17 10:35:51;;;;;;;8.65;7.10;;;;;;;18.39;48.48;99145.84;5064637;28;20053;-73
2023/04/17 10:38:32;;;;;;;9.55;7.03;;;;;;;18.52;46.67;99135.72;5064985;28;20095;-73
2023/04/17 10:41:02;;;;;;;7.97;6.97;;;;;;;18.57;47.91;99139.69;5065976;28;20216;-73
2023/04/17 10:43:31;;;;;;;8.15;7.35;;;;;;;18.54;47.87;99131.91;5068015;28;20091;-73
2023/04/17 10:46:02;;;;;;;10.70;7.80;;;;;;;18.64;47.28;99123.88;5067658;28;20083;-73
2023/04/17 10:48:32;;;;;;;8.68;7.28;;;;;;;18.75;47.51;99126.41;5068007;28;20037;-73
2023/04/17 10:50:59;;;;;;;8.38;7.47;;;;;;;18.85;47.60;99119.19;5068269;28;20201;-73
2023/04/17 10:53:44;;;;;;;8.80;7.20;;;;;;;18.85;44.64;99119.19;5068343;28;20045;-73
2023/04/17 10:56:18;;;;;;;8.48;6.90;;;;;;;18.46;46.36;99066.47;5067916;28;20301;-73
2023/04/17 10:59:00;;;;;;;8.77;6.72;;;;;;;18.92;44.95;99112.25;5067652;28;20048;-73
2023/04/17 11:01:30;;;;;;;7.45;6.68;;;;;;;18.95;46.88;99118.34;5068050;28;20141;-73
2023/04/17 11:03:58;;;;;;;7.82;6.70;;;;;;;18.38;47.14;99028.78;5067781;28;20098;-72
2023/04/17 11:06:27;;;;;;;8.63;7.20;;;;;;;18.77;47.11;99076.09;5068209;28;20036;-73
2023/04/17 11:08:56;;;;;;;9.50;7.03;;;;;;;18.62;46.99;99034.59;5067328;28;20057;-73
2023/04/17 11:11:23;;;;;;;10.23;7.22;;;;;;;19.17;46.91;99104.59;5067522;28;20037;-73
2023/04/17 11:13:50;;;;;;;7.30;6.45;;;;;;;19.30;46.44;99104.25;5067285;28;20312;-73
2023/04/17 11:16:19;;;;;;;7.60;6.05;;;;;;;19.40;45.55;99095.22;5066833;28;20068;-73
2023/04/17 11:18:47;;;;;;;7.40;6.00;;;;;;;19.32;46.20;99105.81;5067246;28;20277;-73
2023/04/17 11:21:16;;;;;;;6.78;6.07;;;;;;;19.38;46.07;99099.84;5067503;28;20041;-73
2023/04/17 11:23:50;;;;;;;7.18;6.25;;;;;;;19.29;44.15;99067.66;5067480;28;20329;-73
2023/04/17 11:26:19;;;;;;;8.40;6.25;;;;;;;19.51;45.68;99102.25;5067061;28;20192;-73
2023/04/17 11:28:46;;;;;;;7.93;6.63;;;;;;;19.62;45.45;99104.75;5067122;28;20033;-73
2023/04/17 11:31:13;;;;;;;8.00;6.63;;;;;;;19.68;45.47;99097.94;5067060;28;20064;-73
2023/04/17 11:33:41;;;;;;;8.40;7.50;;;;;;;19.67;45.21;99093.53;5066773;28;20044;-73
2023/04/17 11:36:09;;;;;;;8.50;6.80;;;;;;;19.66;45.52;99102.59;5067084;28;20049;-73
2023/04/17 11:38:36;;;;;;;7.63;6.93;;;;;;;19.64;45.34;99102.75;5065939;28;20056;-73
2023/04/17 11:41:03;;;;;;;7.05;6.43;;;;;;;19.68;45.26;99089.88;5067195;28;20059;-73